createdAt,value
2019-04-07T00:01:15.761Z,85.10
2019-04-07T00:03:44.909Z,85.20
2019-04-07T00:06:14.470Z,85.40
2019-04-07T00:08:43.261Z,85.50
2019-04-07T00:11:11.739Z,85.10
2019-04-07T00:13:41.587Z,85.10
2019-04-07T00:16:10.423Z,85.20
2019-04-07T00:18:41.677Z,85.40
2019-04-07T00:21:09.856Z,85.40
2019-04-07T00:23:39.444Z,85.50
2019-04-07T00:26:08.244Z,85.70
2019-04-07T00:28:37.032Z,85.70
2019-04-07T00:31:08.437Z,86.20
2019-04-07T00:33:46.565Z,86.10
2019-04-07T00:36:15.396Z,86.10
2019-04-07T00:38:45.002Z,86.20
2019-04-07T00:41:17.621Z,86.40
2019-04-07T00:44:05.256Z,86.50
2019-04-07T00:46:34.450Z,86.50
2019-04-07T00:49:03.191Z,86.50
2019-04-07T00:51:32.348Z,86.50
2019-04-07T00:54:01.939Z,86.50
2019-04-07T00:56:30.281Z,85.90
2019-04-07T00:58:59.093Z,85.40
2019-04-07T01:01:28.203Z,85.50
2019-04-07T01:03:57.070Z,85.80
2019-04-07T01:06:26.151Z,86.10
2019-04-07T01:08:54.960Z,86.50
2019-04-07T01:11:24.291Z,87.50
2019-04-07T01:13:54.834Z,88.40
2019-04-07T01:16:24.391Z,88.80
2019-04-07T01:18:54.661Z,88.70
2019-04-07T01:21:23.753Z,87.70
2019-04-07T01:23:52.445Z,87.40
2019-04-07T01:26:22.754Z,87.10
2019-04-07T01:28:53.643Z,87.40
2019-04-07T01:31:19.844Z,87.30
2019-04-07T01:33:48.905Z,87.10
2019-04-07T01:36:21.599Z,87.90
2019-04-07T01:38:50.119Z,88.50
2019-04-07T01:41:25.253Z,88.70
2019-04-07T01:44:01.947Z,89.20
2019-04-07T01:46:37.078Z,89.60
2019-04-07T01:49:24.067Z,89.40
2019-04-07T01:52:11.768Z,90.10
2019-04-07T01:55:11.375Z,89.80
2019-04-07T01:58:12.421Z,88.90
2019-04-07T02:01:10.056Z,88.50
2019-04-07T02:03:49.589Z,88.50
2019-04-07T02:06:50.265Z,89.00
2019-04-07T02:09:29.901Z,89.70
2019-04-07T02:12:19.900Z,89.50
2019-04-07T02:14:58.944Z,89.90
2019-04-07T02:17:42.789Z,90.00
2019-04-07T02:20:51.720Z,89.20
2019-04-07T02:23:31.710Z,89.50
2019-04-07T02:26:15.605Z,87.80
2019-04-07T02:29:04.046Z,88.40
2019-04-07T02:31:58.539Z,88.90
2019-04-07T02:34:57.561Z,89.40
2019-04-07T02:37:35.218Z,89.70
2019-04-07T02:40:19.998Z,89.80
2019-04-07T02:43:06.622Z,89.00
2019-04-07T02:46:11.615Z,88.90
2019-04-07T02:48:55.245Z,89.40
2019-04-07T02:51:43.715Z,90.00
2019-04-07T02:54:32.721Z,90.00
2019-04-07T02:57:18.870Z,89.50
2019-04-07T03:00:22.066Z,89.50
2019-04-07T03:03:27.577Z,89.60
2019-04-07T03:06:33.210Z,89.90
2019-04-07T03:09:12.853Z,89.80
2019-04-07T03:11:54.170Z,90.00
2019-04-07T03:14:41.320Z,90.10
2019-04-07T03:17:35.014Z,90.20
2019-04-07T03:20:18.754Z,90.40
2019-04-07T03:22:58.827Z,90.30
2019-04-07T03:25:37.224Z,90.30
2019-04-07T03:28:34.618Z,90.40
2019-04-07T03:31:12.522Z,90.40
2019-04-07T03:33:54.290Z,90.10
2019-04-07T03:36:41.015Z,89.50
2019-04-07T03:39:20.488Z,90.10
2019-04-07T03:42:05.134Z,89.50
2019-04-07T03:44:56.670Z,89.40
2019-04-07T03:47:30.132Z,89.10
2019-04-07T03:50:03.978Z,88.60
2019-04-07T03:53:03.775Z,88.60
2019-04-07T03:55:51.515Z,88.50
2019-04-07T03:58:38.187Z,89.50
2019-04-07T04:01:25.899Z,89.50
2019-04-07T04:04:02.013Z,90.20
2019-04-07T04:06:49.656Z,90.40
2019-04-07T04:09:49.468Z,90.50
2019-04-07T04:12:25.680Z,90.70
2019-04-07T04:15:01.617Z,90.70
2019-04-07T04:17:29.142Z,90.70
2019-04-07T04:19:58.605Z,91.00
2019-04-07T04:22:26.693Z,90.80
2019-04-07T04:24:55.902Z,90.60
2019-04-07T04:27:28.037Z,90.40
2019-04-07T04:29:56.846Z,90.20
2019-04-07T04:32:41.224Z,90.10
2019-04-07T04:35:09.106Z,90.40
2019-04-07T04:37:45.094Z,90.50
2019-04-07T04:40:07.273Z,90.40
2019-04-07T04:42:37.572Z,89.80
2019-04-07T04:45:06.564Z,89.40
2019-04-07T04:47:35.468Z,89.30
2019-04-07T04:50:06.330Z,89.50
2019-04-07T04:52:34.049Z,89.60
2019-04-07T04:55:03.567Z,89.10
2019-04-07T04:57:32.068Z,88.90
2019-04-07T05:00:00.631Z,88.90
2019-04-07T05:02:29.975Z,88.70
2019-04-07T05:04:59.285Z,89.50
2019-04-07T05:07:27.343Z,89.60
2019-04-07T05:09:56.793Z,89.10
2019-04-07T05:12:26.120Z,89.00
2019-04-07T05:14:54.886Z,88.80
2019-04-07T05:17:24.286Z,88.50
2019-04-07T05:19:53.401Z,88.20
2019-04-07T05:22:21.576Z,88.20
2019-04-07T05:24:50.712Z,88.40
2019-04-07T05:27:19.843Z,88.30
2019-04-07T05:29:49.437Z,88.50
2019-04-07T05:32:17.470Z,88.20
2019-04-07T05:34:47.653Z,88.50
2019-04-07T05:37:16.670Z,88.50
2019-04-07T05:39:45.165Z,88.00
2019-04-07T05:42:14.649Z,87.70
2019-04-07T05:44:43.195Z,88.00
2019-04-07T05:47:13.751Z,87.50
2019-04-07T05:49:41.385Z,87.20
2019-04-07T05:52:09.631Z,88.50
2019-04-07T05:54:39.430Z,87.90
2019-04-07T05:57:08.548Z,87.20
2019-04-07T05:59:36.781Z,86.70
2019-04-07T06:02:05.825Z,86.40
2019-04-07T06:04:36.096Z,86.40
2019-04-07T06:07:04.903Z,86.40
2019-04-07T06:09:33.989Z,87.50
2019-04-07T06:12:05.944Z,87.20
2019-04-07T06:14:31.280Z,86.90
2019-04-07T06:17:00.167Z,85.90
2019-04-07T06:19:29.388Z,85.40
2019-04-07T06:21:59.028Z,83.70
2019-04-07T06:24:31.478Z,83.60
2019-04-07T06:26:57.456Z,82.10
2019-04-07T06:29:26.505Z,78.50
2019-04-07T06:31:55.095Z,75.70
2019-04-07T06:34:23.903Z,71.10
2019-04-07T06:36:55.244Z,67.20
2019-04-07T06:39:24.111Z,66.30
2019-04-07T06:41:52.582Z,64.40
2019-04-07T06:44:23.213Z,63.20
2019-04-07T06:47:15.879Z,61.40
2019-04-07T06:50:14.125Z,59.30
2019-04-07T06:53:18.639Z,60.10
2019-04-07T06:56:03.237Z,60.00
2019-04-07T06:58:41.924Z,57.60
2019-04-07T07:01:28.514Z,57.40
2019-04-07T07:04:35.652Z,57.40
2019-04-07T07:07:22.948Z,56.30
2019-04-07T07:10:30.161Z,55.90
2019-04-07T07:13:28.483Z,54.00
2019-04-07T07:16:01.622Z,55.60
2019-04-07T07:18:51.198Z,55.00
2019-04-07T07:21:27.451Z,54.40
2019-04-07T07:23:56.851Z,53.40
2019-04-07T07:26:28.470Z,50.40
2019-04-07T07:28:58.454Z,50.70
2019-04-07T07:31:28.315Z,49.60
2019-04-07T07:33:58.279Z,48.60
2019-04-07T07:36:27.415Z,48.30
2019-04-07T07:39:01.311Z,47.50
2019-04-07T07:41:25.370Z,47.80
2019-04-07T07:43:54.853Z,48.60
2019-04-07T07:46:23.824Z,47.60
2019-04-07T07:48:54.198Z,45.90
2019-04-07T07:51:24.803Z,46.00
2019-04-07T07:53:57.133Z,46.20
2019-04-07T07:56:24.458Z,47.20
2019-04-07T07:59:07.733Z,46.50
2019-04-07T08:01:38.339Z,47.00
2019-04-07T08:04:07.585Z,46.40
2019-04-07T08:06:38.517Z,46.20
2019-04-07T08:09:12.878Z,45.50
2019-04-07T08:11:37.303Z,43.60
2019-04-07T08:14:05.270Z,41.90
2019-04-07T08:16:34.635Z,43.40
2019-04-07T08:19:02.917Z,42.30
2019-04-07T08:21:32.727Z,42.70
2019-04-07T08:24:01.491Z,42.30
2019-04-07T08:26:31.723Z,40.90
2019-04-07T08:28:59.144Z,40.40
2019-04-07T08:31:30.304Z,39.80
2019-04-07T08:34:00.017Z,40.40
2019-04-07T08:36:27.732Z,41.00
2019-04-07T08:38:57.160Z,42.70
2019-04-07T08:41:25.591Z,42.00
2019-04-07T08:43:56.684Z,41.40
2019-04-07T08:46:22.868Z,40.60
2019-04-07T08:48:54.308Z,39.70
2019-04-07T08:51:24.196Z,39.00
2019-04-07T08:53:52.588Z,41.10
2019-04-07T08:56:24.252Z,37.60
2019-04-07T08:58:51.032Z,36.20
2019-04-07T09:01:23.957Z,36.00
2019-04-07T09:03:53.057Z,36.00
2019-04-07T09:06:28.452Z,36.60
2019-04-07T09:08:58.697Z,38.70
2019-04-07T09:11:28.295Z,40.40
2019-04-07T09:13:58.827Z,37.60
2019-04-07T09:16:59.688Z,37.30
2019-04-07T09:19:48.623Z,38.30
2019-04-07T09:22:42.067Z,37.20
2019-04-07T09:25:23.820Z,38.50
2019-04-07T09:28:08.740Z,37.40
2019-04-07T09:30:55.216Z,36.70
2019-04-07T09:34:01.439Z,36.00
2019-04-07T09:37:00.238Z,36.60
2019-04-07T09:40:02.932Z,38.30
2019-04-07T09:43:00.771Z,38.30
2019-04-07T09:45:52.915Z,39.40
2019-04-07T09:48:52.258Z,38.40
2019-04-07T09:51:38.630Z,36.40
2019-04-07T09:54:23.405Z,35.10
2019-04-07T09:57:11.174Z,35.60
2019-04-07T09:59:53.500Z,35.90
2019-04-07T10:02:56.951Z,36.20
2019-04-07T10:05:43.309Z,36.30
2019-04-07T10:08:24.901Z,38.30
2019-04-07T10:11:12.868Z,35.90
2019-04-07T10:14:07.957Z,34.90
2019-04-07T10:16:48.443Z,34.80
2019-04-07T10:19:45.702Z,36.50
2019-04-07T10:22:34.626Z,35.40
2019-04-07T10:25:10.724Z,33.70
2019-04-07T10:28:13.819Z,33.90
2019-04-07T10:31:05.481Z,32.90
2019-04-07T10:33:48.202Z,34.00
2019-04-07T10:36:37.423Z,34.20
2019-04-07T10:39:15.094Z,34.60
2019-04-07T10:42:05.300Z,34.80
2019-04-07T10:47:51.147Z,34.70
2019-04-07T10:51:17.365Z,34.90
2019-04-07T10:54:03.754Z,36.50
2019-04-07T10:56:42.889Z,37.80
2019-04-07T10:59:22.066Z,35.80
2019-04-07T11:02:23.914Z,37.40
2019-04-07T11:04:59.278Z,36.50
2019-04-07T11:07:34.982Z,35.80
2019-04-07T11:10:13.669Z,33.90
2019-04-07T11:13:07.638Z,33.90
2019-04-07T11:16:09.222Z,34.60
2019-04-07T11:18:59.401Z,35.80
2019-04-07T11:21:41.641Z,33.10
2019-04-07T11:24:31.592Z,34.80
2019-04-07T11:27:27.635Z,35.50
2019-04-07T11:30:24.510Z,33.70
2019-04-07T11:33:15.016Z,33.30
2019-04-07T11:35:52.223Z,32.70
2019-04-07T11:38:44.088Z,32.70
2019-04-07T11:41:43.557Z,33.90
2019-04-07T11:44:30.194Z,32.80
2019-04-07T11:47:26.285Z,32.20
2019-04-07T11:50:00.298Z,32.50
2019-04-07T11:52:35.373Z,34.70
2019-04-07T11:55:20.011Z,35.90
2019-04-07T11:58:29.570Z,35.00
2019-04-07T12:01:00.200Z,34.70
2019-04-07T12:03:40.440Z,35.40
2019-04-07T12:06:17.063Z,34.40
2019-04-07T12:09:02.230Z,33.60
2019-04-07T12:11:38.664Z,33.80
2019-04-07T12:14:25.666Z,33.00
2019-04-07T12:17:22.401Z,35.00
2019-04-07T12:20:10.856Z,36.30
2019-04-07T12:22:50.245Z,35.80
2019-04-07T12:25:41.640Z,34.10
2019-04-07T12:28:20.291Z,34.10
2019-04-07T12:31:10.440Z,35.10
2019-04-07T12:33:49.537Z,33.90
2019-04-07T12:36:30.765Z,34.30
2019-04-07T12:39:18.932Z,37.00
2019-04-07T12:41:59.443Z,36.90
2019-04-07T12:44:36.448Z,37.40
2019-04-07T12:47:18.176Z,37.10
2019-04-07T12:49:59.508Z,37.00
2019-04-07T12:52:34.480Z,36.80
2019-04-07T12:55:17.995Z,37.20
2019-04-07T12:57:56.976Z,36.90
2019-04-07T13:00:58.023Z,38.00
2019-04-07T13:03:33.253Z,38.40
2019-04-07T13:06:17.849Z,39.00
2019-04-07T13:09:00.730Z,38.40
2019-04-07T13:11:51.533Z,38.30
2019-04-07T13:14:40.024Z,39.00
2019-04-07T13:17:33.537Z,36.50
2019-04-07T13:20:08.955Z,37.60
2019-04-07T13:22:45.631Z,38.90
2019-04-07T13:25:24.346Z,40.00
2019-04-07T13:28:11.613Z,40.70
2019-04-07T13:31:02.945Z,41.10
2019-04-07T13:34:00.085Z,41.10
2019-04-07T13:36:47.627Z,40.80
2019-04-07T13:39:39.498Z,41.30
2019-04-07T13:42:23.065Z,42.60
2019-04-07T13:45:20.205Z,42.40
2019-04-07T13:47:57.990Z,41.00
2019-04-07T13:50:41.944Z,41.70
2019-04-07T13:53:30.592Z,40.90
2019-04-07T13:56:26.448Z,41.10
2019-04-07T13:59:16.355Z,40.40
2019-04-07T14:01:56.911Z,39.10
2019-04-07T14:04:37.495Z,37.50
2019-04-07T14:07:30.636Z,36.60
2019-04-07T14:10:18.136Z,35.80
2019-04-07T14:13:06.072Z,36.50
2019-04-07T14:15:58.615Z,35.70
2019-04-07T14:18:34.459Z,36.40
2019-04-07T14:21:20.421Z,38.10
2019-04-07T14:24:05.144Z,39.20
2019-04-07T14:26:47.840Z,40.30
2019-04-07T14:29:39.457Z,38.80
2019-04-07T14:32:37.427Z,38.90
2019-04-07T14:35:34.660Z,39.70
2019-04-07T14:38:29.003Z,40.20
2019-04-07T14:41:14.019Z,39.50
2019-04-07T14:43:53.015Z,39.40
2019-04-07T14:46:39.080Z,39.50
2019-04-07T14:49:27.874Z,39.50
2019-04-07T14:52:08.986Z,38.80
2019-04-07T14:54:59.772Z,38.50
2019-04-07T14:57:45.862Z,38.10
2019-04-07T15:00:39.743Z,37.20
2019-04-07T15:03:09.338Z,37.30
2019-04-07T15:05:40.704Z,38.70
2019-04-07T15:08:14.047Z,38.40
2019-04-07T15:10:46.257Z,39.50
2019-04-07T15:13:17.219Z,38.80
2019-04-07T15:15:46.119Z,38.70
2019-04-07T15:18:16.492Z,39.30
2019-04-07T15:20:45.153Z,39.10
2019-04-07T15:23:13.764Z,39.50
2019-04-07T15:25:45.101Z,39.20
2019-04-07T15:28:11.378Z,40.00
2019-04-07T15:30:40.648Z,41.30
2019-04-07T15:33:11.800Z,39.30
2019-04-07T15:35:38.474Z,40.20
2019-04-07T15:38:06.910Z,40.20
2019-04-07T15:40:36.477Z,40.50
2019-04-07T15:43:07.551Z,38.80
2019-04-07T15:45:33.632Z,39.50
2019-04-07T15:48:02.932Z,39.00
2019-04-07T15:50:31.440Z,38.40
2019-04-07T15:53:00.307Z,39.50
2019-04-07T15:55:43.941Z,39.10
2019-04-07T15:57:59.337Z,39.40
2019-04-07T16:00:26.959Z,40.60
2019-04-07T16:02:55.718Z,40.80
2019-04-07T16:05:24.540Z,39.70
2019-04-07T16:07:55.402Z,40.10
2019-04-07T16:10:23.811Z,41.70
2019-04-07T16:12:53.776Z,40.90
2019-04-07T16:15:21.392Z,40.50
2019-04-07T16:17:55.540Z,40.80
2019-04-07T16:20:29.048Z,41.20
2019-04-07T16:22:55.373Z,41.90
2019-04-07T16:25:27.513Z,42.80
2019-04-07T16:27:53.314Z,43.50
2019-04-07T16:30:23.272Z,44.60
2019-04-07T16:32:59.668Z,44.90
2019-04-07T16:35:27.844Z,45.10
2019-04-07T16:38:00.056Z,45.40
2019-04-07T16:40:28.063Z,45.50
2019-04-07T16:43:09.297Z,45.70
2019-04-07T16:45:27.141Z,45.00
2019-04-07T16:47:56.574Z,45.20
2019-04-07T16:50:35.812Z,44.80
2019-04-07T16:53:06.528Z,44.90
2019-04-07T16:55:41.553Z,45.40
2019-04-07T16:58:09.641Z,45.00
2019-04-07T17:00:39.840Z,44.80
2019-04-07T17:03:09.786Z,44.90
2019-04-07T17:05:38.392Z,45.20
2019-04-07T17:08:08.486Z,45.70
2019-04-07T17:10:37.049Z,46.00
2019-04-07T17:13:16.873Z,46.30
2019-04-07T17:15:37.315Z,46.90
2019-04-07T17:18:08.179Z,46.50
2019-04-07T17:20:37.658Z,46.70
2019-04-07T17:23:04.949Z,46.80
2019-04-07T17:25:34.612Z,46.70
2019-04-07T17:28:05.011Z,46.70
2019-04-07T17:30:33.925Z,47.00
2019-04-07T17:33:04.807Z,47.00
2019-04-07T17:35:33.815Z,47.40
2019-04-07T17:38:06.675Z,48.10
2019-04-07T17:40:37.531Z,47.90
2019-04-07T17:43:29.545Z,48.30
2019-04-07T17:46:04.113Z,49.30
2019-04-07T17:48:49.455Z,49.80
2019-04-07T17:51:38.300Z,50.30
2019-04-07T17:54:24.902Z,50.70
2019-04-07T17:57:04.002Z,50.90
2019-04-07T17:59:49.360Z,51.10
2019-04-07T18:02:44.153Z,51.10
2019-04-07T18:05:29.280Z,51.60
2019-04-07T18:08:19.977Z,52.10
2019-04-07T18:11:05.392Z,52.60
2019-04-07T18:14:05.777Z,53.10
2019-04-07T18:16:52.815Z,53.30
2019-04-07T18:19:43.122Z,53.40
2019-04-07T18:22:22.628Z,53.70
2019-04-07T18:24:59.742Z,54.30
2019-04-07T18:27:38.243Z,54.70
2019-04-07T18:30:24.748Z,54.60
2019-04-07T18:32:59.709Z,54.90
2019-04-07T18:35:39.435Z,55.20
2019-04-07T18:38:15.820Z,55.20
2019-04-07T18:41:10.093Z,55.10
2019-04-07T18:43:50.695Z,55.20
2019-04-07T18:46:28.859Z,55.30
2019-04-07T18:49:12.479Z,55.30
2019-04-07T18:51:50.768Z,55.80
2019-04-07T18:54:42.458Z,55.80
2019-04-07T18:57:37.127Z,56.00
2019-04-07T19:00:32.323Z,56.10
2019-04-07T19:03:23.738Z,56.50
2019-04-07T19:06:16.536Z,57.30
2019-04-07T19:09:23.908Z,58.60
2019-04-07T19:12:10.547Z,59.70
2019-04-07T19:15:02.339Z,60.60
2019-04-07T19:18:01.795Z,61.80
2019-04-07T19:20:52.474Z,62.70
2019-04-07T19:23:30.398Z,63.60
2019-04-07T19:26:24.700Z,64.50
2019-04-07T19:29:01.660Z,65.10
2019-04-07T19:31:55.558Z,65.30
2019-04-07T19:34:41.991Z,65.90
2019-04-07T19:37:22.879Z,66.10
2019-04-07T19:40:06.361Z,66.60
2019-04-07T19:42:52.885Z,67.00
2019-04-07T19:45:29.146Z,67.40
2019-04-07T19:48:20.986Z,67.80
2019-04-07T19:51:10.621Z,67.90
2019-04-07T19:53:47.674Z,68.30
2019-04-07T19:56:35.464Z,68.80
2019-04-07T19:59:26.769Z,69.10
2019-04-07T20:02:17.689Z,69.60
2019-04-07T20:05:41.491Z,70.30
2019-04-07T20:08:39.464Z,70.50
2019-04-07T20:11:14.903Z,71.10
2019-04-07T20:13:59.244Z,71.40
2019-04-07T20:16:44.895Z,71.80
2019-04-07T20:19:21.555Z,72.20
2019-04-07T20:22:02.167Z,72.60
2019-04-07T20:25:09.695Z,72.90
2019-04-07T20:27:56.030Z,72.10
2019-04-07T20:30:38.009Z,71.40
2019-04-07T20:33:20.642Z,70.90
2019-04-07T20:36:15.030Z,71.40
2019-04-07T20:39:09.438Z,71.10
2019-04-07T20:41:55.457Z,71.80
2019-04-07T20:45:02.466Z,72.20
2019-04-07T20:47:43.399Z,72.00
2019-04-07T20:50:56.947Z,72.20
2019-04-07T20:53:49.427Z,73.70
2019-04-07T20:56:36.192Z,74.00
2019-04-07T20:59:20.460Z,74.10
2019-04-07T21:02:07.144Z,74.20
2019-04-07T21:04:52.111Z,75.10
2019-04-07T21:07:31.908Z,75.30
2019-04-07T21:10:26.335Z,76.20
2019-04-07T21:13:22.630Z,76.70
2019-04-07T21:16:15.340Z,77.00
2019-04-07T21:18:54.324Z,76.80
2019-04-07T21:21:34.499Z,76.50
2019-04-07T21:24:29.257Z,76.20
2019-04-07T21:27:12.261Z,75.80
2019-04-07T21:30:04.238Z,75.90
2019-04-07T21:32:57.111Z,75.60
2019-04-07T21:35:36.620Z,75.10
2019-04-07T21:38:25.755Z,75.30
2019-04-07T21:41:17.783Z,75.30
2019-04-07T21:44:15.553Z,74.60
2019-04-07T21:47:00.024Z,75.60
2019-04-07T21:49:43.937Z,74.40
2019-04-07T21:52:37.694Z,73.70
2019-04-07T21:55:44.613Z,72.30
2019-04-07T21:58:25.070Z,71.10
2019-04-07T22:01:05.238Z,69.40
2019-04-07T22:03:40.345Z,69.00
2019-04-07T22:06:20.122Z,68.60
2019-04-07T22:09:14.784Z,68.00
2019-04-07T22:11:41.842Z,67.70
2019-04-07T22:14:07.919Z,67.40
2019-04-07T22:16:36.803Z,67.10
2019-04-07T22:19:10.245Z,66.80
2019-04-07T22:21:36.196Z,66.60
2019-04-07T22:24:04.915Z,66.30
2019-04-07T22:26:37.081Z,66.40
2019-04-07T22:29:05.755Z,66.40
2019-04-07T22:31:45.669Z,66.40
2019-04-07T22:34:14.757Z,66.40
2019-04-07T22:36:41.660Z,66.30
2019-04-07T22:39:10.140Z,66.90
2019-04-07T22:41:41.786Z,66.60
2019-04-07T22:44:08.108Z,66.50
2019-04-07T22:46:37.402Z,66.80
2019-04-07T22:49:07.288Z,68.00
2019-04-07T22:51:38.161Z,70.40
2019-04-07T22:54:07.899Z,70.60
2019-04-07T22:56:37.515Z,71.30
2019-04-07T22:59:05.802Z,72.20
2019-04-07T23:01:33.921Z,73.50
2019-04-07T23:04:03.528Z,74.00
2019-04-07T23:06:34.134Z,73.40
2019-04-07T23:09:02.031Z,73.20
2019-04-07T23:11:32.029Z,73.10
2019-04-07T23:14:01.017Z,73.00
2019-04-07T23:16:30.040Z,72.20
2019-04-07T23:19:27.031Z,72.40
2019-04-07T23:22:09.531Z,73.70
2019-04-07T23:24:46.227Z,73.70
2019-04-07T23:27:15.142Z,73.70
2019-04-07T23:29:52.767Z,74.10
2019-04-07T23:32:23.982Z,74.10
2019-04-07T23:34:52.128Z,74.40
2019-04-07T23:37:20.970Z,73.80
2019-04-07T23:39:49.741Z,73.80
2019-04-07T23:42:18.538Z,74.40
2019-04-07T23:44:47.847Z,75.70
2019-04-07T23:47:17.343Z,76.30
2019-04-07T23:49:45.306Z,76.60
2019-04-07T23:52:14.601Z,77.60
2019-04-07T23:54:43.330Z,77.60
2019-04-07T23:57:12.329Z,77.20
2019-04-07T23:59:41.993Z,77.40
